createdAt,value
2022-08-28T00:00:59.018Z,74.31
2022-08-28T00:01:59.197Z,74.35
2022-08-28T00:02:59.412Z,74.25
2022-08-28T00:03:59.509Z,74.05
2022-08-28T00:04:59.697Z,74.15
2022-08-28T00:05:59.840Z,74.25
2022-08-28T00:07:00.029Z,74.25
2022-08-28T00:08:00.191Z,74.25
2022-08-28T00:09:00.345Z,74.25
2022-08-28T00:10:00.542Z,74.35
2022-08-28T00:11:00.700Z,74.35
2022-08-28T00:12:00.883Z,74.35
2022-08-28T00:13:01.023Z,74.44
2022-08-28T00:14:01.187Z,74.55
2022-08-28T00:15:01.343Z,74.44
2022-08-28T00:16:01.553Z,74.25
2022-08-28T00:17:01.683Z,74.25
2022-08-28T00:18:01.840Z,74.15
2022-08-28T00:19:02.005Z,74.35
2022-08-28T00:20:02.175Z,73.95
2022-08-28T00:21:02.350Z,74.44
2022-08-28T00:22:02.521Z,74.35
2022-08-28T00:23:02.677Z,74.44
2022-08-28T00:24:02.837Z,74.35
2022-08-28T00:25:02.999Z,74.55
2022-08-28T00:26:03.159Z,74.65
2022-08-28T00:27:03.338Z,74.74
2022-08-28T00:28:05.447Z,74.74
2022-08-28T00:29:04.679Z,74.65
2022-08-28T00:30:03.869Z,74.65
2022-08-28T00:31:04.048Z,74.74
2022-08-28T00:32:04.216Z,74.74
2022-08-28T00:33:04.391Z,74.74
2022-08-28T00:34:04.561Z,74.74
2022-08-28T00:35:04.711Z,74.74
2022-08-28T00:36:04.903Z,74.65
2022-08-28T00:37:05.103Z,74.65
2022-08-28T00:38:05.318Z,74.74
2022-08-28T00:39:05.454Z,74.74
2022-08-28T00:40:05.671Z,74.74
2022-08-28T00:41:05.816Z,74.84
2022-08-28T00:42:05.975Z,74.55
2022-08-28T00:43:06.163Z,74.65
2022-08-28T00:44:06.338Z,74.55
2022-08-28T00:45:06.518Z,74.55
2022-08-28T00:46:06.738Z,74.55
2022-08-28T00:47:06.872Z,74.65
2022-08-28T00:48:07.037Z,74.65
2022-08-28T00:49:07.169Z,74.65
2022-08-28T00:50:07.347Z,74.44
2022-08-28T00:51:07.517Z,74.55
2022-08-28T00:52:07.711Z,74.55
2022-08-28T00:53:07.886Z,74.55
2022-08-28T00:54:08.277Z,74.74
2022-08-28T00:55:08.222Z,74.44
2022-08-28T00:56:13.101Z,74.35
2022-08-28T00:57:09.577Z,74.35
2022-08-28T00:58:08.766Z,74.55
2022-08-28T00:59:08.919Z,74.55
2022-08-28T01:00:09.089Z,74.74
2022-08-28T01:01:09.254Z,74.74
2022-08-28T01:02:09.421Z,74.65
2022-08-28T01:03:09.639Z,74.44
2022-08-28T01:04:09.781Z,74.58
2022-08-28T01:05:09.953Z,74.78
2022-08-28T01:06:10.124Z,74.88
2022-08-28T01:07:10.294Z,74.55
2022-08-28T01:08:10.553Z,74.65
2022-08-28T01:09:10.644Z,74.78
2022-08-28T01:10:10.827Z,74.68
2022-08-28T01:11:10.985Z,74.29
2022-08-28T01:12:11.158Z,74.38
2022-08-28T01:13:11.334Z,74.68
2022-08-28T01:14:11.511Z,74.68
2022-08-28T01:15:11.676Z,74.19
2022-08-28T01:16:11.985Z,74.48
2022-08-28T01:17:12.026Z,74.68
2022-08-28T01:18:12.336Z,73.99
2022-08-28T01:19:12.367Z,73.99
2022-08-28T01:20:12.545Z,74.29
2022-08-28T01:21:12.713Z,74.48
2022-08-28T01:22:13.868Z,74.58
2022-08-28T01:23:13.047Z,74.48
2022-08-28T01:24:13.219Z,74.29
2022-08-28T01:25:13.390Z,74.38
2022-08-28T01:26:13.560Z,74.48
2022-08-28T01:27:13.732Z,74.48
2022-08-28T01:28:14.028Z,73.79
2022-08-28T01:29:14.088Z,73.69
2022-08-28T01:30:14.252Z,74.08
2022-08-28T01:31:14.483Z,73.49
2022-08-28T01:32:14.583Z,73.89
2022-08-28T01:33:14.764Z,73.79
2022-08-28T01:34:14.935Z,73.19
2022-08-28T01:35:15.093Z,73.69
2022-08-28T01:36:15.263Z,73.89
2022-08-28T01:37:15.437Z,73.49
2022-08-28T01:38:19.620Z,72.89
2022-08-28T01:39:15.783Z,72.80
2022-08-28T01:40:15.996Z,72.89
2022-08-28T01:41:16.133Z,73.39
2022-08-28T01:42:16.308Z,73.39
2022-08-28T01:43:16.486Z,73.00
2022-08-28T01:44:18.204Z,73.10
2022-08-28T01:45:16.819Z,73.00
2022-08-28T01:46:17.049Z,73.10
2022-08-28T01:47:17.148Z,72.70
2022-08-28T01:48:17.335Z,72.73
2022-08-28T01:49:17.498Z,73.19
2022-08-28T01:50:17.678Z,73.23
2022-08-28T01:51:21.500Z,73.33
2022-08-28T01:52:19.010Z,72.83
2022-08-28T01:53:19.202Z,72.14
2022-08-28T01:54:19.360Z,72.04
2022-08-28T01:55:20.536Z,72.83
2022-08-28T01:56:18.731Z,72.24
2022-08-28T01:57:18.881Z,72.83
2022-08-28T01:58:19.063Z,72.93
2022-08-28T01:59:19.243Z,71.94
2022-08-28T02:00:19.404Z,71.74
2022-08-28T02:01:19.595Z,72.24
2022-08-28T02:02:19.744Z,72.44
2022-08-28T02:03:19.907Z,72.24
2022-08-28T02:04:20.109Z,72.04
2022-08-28T02:05:21.224Z,71.64
2022-08-28T02:06:20.396Z,72.33
2022-08-28T02:07:20.543Z,72.44
2022-08-28T02:08:20.707Z,72.53
2022-08-28T02:09:20.881Z,72.44
2022-08-28T02:10:21.051Z,72.37
2022-08-28T02:11:21.214Z,72.57
2022-08-28T02:12:21.381Z,72.57
2022-08-28T02:13:21.538Z,72.67
2022-08-28T02:14:21.738Z,72.77
2022-08-28T02:15:23.542Z,72.97
2022-08-28T02:16:22.120Z,72.17
2022-08-28T02:17:22.261Z,72.07
2022-08-28T02:18:22.449Z,72.47
2022-08-28T02:19:22.627Z,71.88
2022-08-28T02:20:22.790Z,71.48
2022-08-28T02:21:22.976Z,70.68
2022-08-28T02:22:23.171Z,71.58
2022-08-28T02:23:23.331Z,70.98
2022-08-28T02:24:23.520Z,71.58
2022-08-28T02:25:23.681Z,71.18
2022-08-28T02:26:23.874Z,71.78
2022-08-28T02:27:24.041Z,71.78
2022-08-28T02:28:24.192Z,71.78
2022-08-28T02:29:24.403Z,71.58
2022-08-28T02:30:24.565Z,71.97
2022-08-28T02:31:24.751Z,72.07
2022-08-28T02:32:24.915Z,71.67
2022-08-28T02:33:25.084Z,71.48
2022-08-28T02:34:25.270Z,70.72
2022-08-28T02:35:25.448Z,71.01
2022-08-28T02:36:25.606Z,71.71
2022-08-28T02:37:25.777Z,71.71
2022-08-28T02:38:25.926Z,71.71
2022-08-28T02:39:26.107Z,70.81
2022-08-28T02:40:26.325Z,71.11
2022-08-28T02:41:26.457Z,71.81
2022-08-28T02:42:26.618Z,71.41
2022-08-28T02:43:26.778Z,71.51
2022-08-28T02:44:26.988Z,70.72
2022-08-28T02:45:27.120Z,71.31
2022-08-28T02:46:27.342Z,71.31
2022-08-28T02:47:27.450Z,71.61
2022-08-28T02:48:27.611Z,71.91
2022-08-28T02:49:31.254Z,72.20
2022-08-28T02:50:28.935Z,72.20
2022-08-28T02:51:28.091Z,72.20
2022-08-28T02:52:28.281Z,72.31
2022-08-28T02:53:28.462Z,71.81
2022-08-28T02:54:28.643Z,72.20
2022-08-28T02:55:33.643Z,71.51
2022-08-28T02:56:29.986Z,71.81
2022-08-28T02:57:29.164Z,71.81
2022-08-28T02:58:29.334Z,71.51
2022-08-28T02:59:29.523Z,71.91
2022-08-28T03:00:29.695Z,70.81
2022-08-28T03:01:29.973Z,70.62
2022-08-28T03:02:30.148Z,70.32
2022-08-28T03:03:30.237Z,71.22
2022-08-28T03:04:30.438Z,71.75
2022-08-28T03:05:30.567Z,71.25
2022-08-28T03:06:30.758Z,71.25
2022-08-28T03:07:30.917Z,71.81
2022-08-28T03:08:31.078Z,71.94
2022-08-28T03:09:31.255Z,72.04
2022-08-28T03:10:31.433Z,72.14
2022-08-28T03:11:38.616Z,71.64
2022-08-28T03:12:31.772Z,71.84
2022-08-28T03:13:31.937Z,71.94
2022-08-28T03:14:32.145Z,72.04
2022-08-28T03:15:32.283Z,72.04
2022-08-28T03:16:32.526Z,70.95
2022-08-28T03:17:32.608Z,71.45
2022-08-28T03:18:32.777Z,72.04
2022-08-28T03:19:32.979Z,72.04
2022-08-28T03:20:33.148Z,70.95
2022-08-28T03:21:33.299Z,71.45
2022-08-28T03:22:33.489Z,71.75
2022-08-28T03:23:33.649Z,71.94
2022-08-28T03:24:33.824Z,71.25
2022-08-28T03:25:33.984Z,71.84
2022-08-28T03:26:34.140Z,71.94
2022-08-28T03:27:34.300Z,71.45
2022-08-28T03:28:34.470Z,70.75
2022-08-28T03:29:34.651Z,71.45
2022-08-28T03:30:34.922Z,71.34
2022-08-28T03:31:34.971Z,70.65
2022-08-28T03:32:35.142Z,70.75
2022-08-28T03:33:35.303Z,70.55
2022-08-28T03:34:35.483Z,70.36
2022-08-28T03:35:35.656Z,70.09
2022-08-28T03:36:35.811Z,70.09
2022-08-28T03:37:35.974Z,70.59
2022-08-28T03:38:36.135Z,70.78
2022-08-28T03:39:36.315Z,70.89
2022-08-28T03:40:36.505Z,70.29
2022-08-28T03:41:36.652Z,69.89
2022-08-28T03:42:36.839Z,69.69
2022-08-28T03:43:36.986Z,69.99
2022-08-28T03:44:37.181Z,69.69
2022-08-28T03:45:37.370Z,70.39
2022-08-28T03:46:37.524Z,70.89
2022-08-28T03:47:37.688Z,71.08
2022-08-28T03:48:37.856Z,70.59
2022-08-28T03:49:38.019Z,71.08
2022-08-28T03:50:38.179Z,70.98
2022-08-28T03:51:38.345Z,70.19
2022-08-28T03:52:38.508Z,70.68
2022-08-28T03:53:38.689Z,70.39
2022-08-28T03:54:38.839Z,70.89
2022-08-28T03:55:39.031Z,70.98
2022-08-28T03:56:39.190Z,70.48
2022-08-28T03:57:39.362Z,70.89
2022-08-28T03:58:39.544Z,70.89
2022-08-28T03:59:39.713Z,70.09
2022-08-28T04:00:39.875Z,70.48
2022-08-28T04:02:01.033Z,70.89
2022-08-28T04:02:40.201Z,70.62
2022-08-28T04:03:40.480Z,70.68
2022-08-28T04:04:40.544Z,70.32
2022-08-28T04:05:40.713Z,70.42
2022-08-28T04:06:40.883Z,70.22
2022-08-28T04:07:41.054Z,70.72
2022-08-28T04:08:52.423Z,70.52
2022-08-28T04:09:41.396Z,71.12
2022-08-28T04:10:41.546Z,71.31
2022-08-28T04:11:41.714Z,71.42
2022-08-28T04:12:41.907Z,70.92
2022-08-28T04:13:42.157Z,71.12
2022-08-28T04:14:42.242Z,70.72
2022-08-28T04:15:42.388Z,70.82
2022-08-28T04:16:42.594Z,71.01
2022-08-28T04:17:42.718Z,70.62
2022-08-28T04:18:42.879Z,70.92
2022-08-28T04:19:43.067Z,70.52
2022-08-28T04:20:46.494Z,71.12
2022-08-28T04:21:43.395Z,71.12
2022-08-28T04:22:43.550Z,70.82
2022-08-28T04:23:43.720Z,70.82
2022-08-28T04:24:43.880Z,71.22
2022-08-28T04:25:44.051Z,71.12
2022-08-28T04:26:44.211Z,69.92
2022-08-28T04:27:44.372Z,70.52
2022-08-28T04:28:44.544Z,71.12
2022-08-28T04:29:44.721Z,70.62
2022-08-28T04:30:44.893Z,70.42
2022-08-28T04:31:45.098Z,70.82
2022-08-28T04:32:45.233Z,70.62
2022-08-28T04:33:45.413Z,71.12
2022-08-28T04:34:45.607Z,70.42
2022-08-28T04:35:45.763Z,70.42
2022-08-28T04:36:45.945Z,69.82
2022-08-28T04:37:46.125Z,70.42
2022-08-28T04:38:46.335Z,69.82
2022-08-28T04:39:46.494Z,70.62
2022-08-28T04:40:46.655Z,70.92
2022-08-28T04:41:46.806Z,70.52
2022-08-28T04:42:47.007Z,70.62
2022-08-28T04:43:47.181Z,70.82
2022-08-28T04:44:47.328Z,71.22
2022-08-28T04:45:47.509Z,71.12
2022-08-28T04:46:48.319Z,70.72
2022-08-28T04:47:47.838Z,70.72
2022-08-28T04:48:48.059Z,71.12
2022-08-28T04:49:48.206Z,71.42
2022-08-28T04:50:48.389Z,71.51
2022-08-28T04:51:48.553Z,71.12
2022-08-28T04:52:48.731Z,71.31
2022-08-28T04:53:48.928Z,70.03
2022-08-28T04:54:49.082Z,70.52
2022-08-28T04:55:54.720Z,70.32
2022-08-28T04:56:50.432Z,70.56
2022-08-28T04:57:49.623Z,70.12
2022-08-28T04:58:49.802Z,70.75
2022-08-28T04:59:49.980Z,71.05
2022-08-28T05:00:50.210Z,71.15
2022-08-28T05:01:50.366Z,71.05
2022-08-28T05:02:50.504Z,71.35
2022-08-28T05:03:50.683Z,71.15
2022-08-28T05:04:50.896Z,71.35
2022-08-28T05:05:51.064Z,71.25
2022-08-28T05:06:51.216Z,71.15
2022-08-28T05:07:51.366Z,70.75
2022-08-28T05:08:51.547Z,70.56
2022-08-28T05:09:51.736Z,70.65
2022-08-28T05:10:51.906Z,70.65
2022-08-28T05:11:52.096Z,70.65
2022-08-28T05:12:52.284Z,70.65
2022-08-28T05:13:52.447Z,71.05
2022-08-28T05:14:52.609Z,70.45
2022-08-28T05:15:52.834Z,70.06
2022-08-28T05:16:52.978Z,69.76
2022-08-28T05:17:53.114Z,69.96
2022-08-28T05:18:53.317Z,70.06
2022-08-28T05:19:53.470Z,70.36
2022-08-28T05:20:53.679Z,70.56
2022-08-28T05:21:53.820Z,70.75
2022-08-28T05:22:54.005Z,70.95
2022-08-28T05:23:54.191Z,70.75
2022-08-28T05:24:54.350Z,70.45
2022-08-28T05:25:54.505Z,70.85
2022-08-28T05:26:54.681Z,70.95
2022-08-28T05:27:54.881Z,70.75
2022-08-28T05:28:55.052Z,70.85
2022-08-28T05:29:58.499Z,70.75
2022-08-28T05:30:56.394Z,70.75
2022-08-28T05:31:55.620Z,70.15
2022-08-28T05:32:55.734Z,70.56
2022-08-28T05:33:55.952Z,70.65
2022-08-28T05:34:56.099Z,70.75
2022-08-28T05:35:56.253Z,70.36
2022-08-28T05:36:56.446Z,70.45
2022-08-28T05:37:56.601Z,70.45
2022-08-28T05:38:56.805Z,70.45
2022-08-28T05:39:56.998Z,70.56
2022-08-28T05:40:57.127Z,70.26
2022-08-28T05:41:57.317Z,69.96
2022-08-28T05:42:57.509Z,69.85
2022-08-28T05:43:57.697Z,69.16
2022-08-28T05:44:57.909Z,70.06
2022-08-28T05:45:58.172Z,70.06
2022-08-28T05:46:58.229Z,70.06
2022-08-28T05:47:58.467Z,70.45
2022-08-28T05:48:58.580Z,70.36
2022-08-28T05:49:58.779Z,70.56
2022-08-28T05:50:58.949Z,69.66
2022-08-28T05:51:59.100Z,69.76
2022-08-28T05:52:59.295Z,69.76
2022-08-28T05:53:59.451Z,69.85
2022-08-28T05:54:59.626Z,70.06
2022-08-28T05:55:59.782Z,69.56
2022-08-28T05:56:59.972Z,69.66
2022-08-28T05:58:00.143Z,69.06
2022-08-28T05:59:00.306Z,68.96
2022-08-28T06:00:00.483Z,69.76
2022-08-28T06:01:00.643Z,70.06
2022-08-28T06:02:04.163Z,69.96
2022-08-28T06:03:00.965Z,69.76
2022-08-28T06:04:01.252Z,69.85
2022-08-28T06:05:01.324Z,69.85
2022-08-28T06:06:01.479Z,69.16
2022-08-28T06:07:01.635Z,69.06
2022-08-28T06:08:01.796Z,69.06
2022-08-28T06:09:02.004Z,69.16
2022-08-28T06:10:02.157Z,69.06
2022-08-28T06:11:02.349Z,68.66
2022-08-28T06:12:02.520Z,69.26
2022-08-28T06:13:02.715Z,69.46
2022-08-28T06:14:02.930Z,69.16
2022-08-28T06:15:03.066Z,69.06
2022-08-28T06:16:03.316Z,68.76
2022-08-28T06:17:03.389Z,68.56
2022-08-28T06:18:03.544Z,68.56
2022-08-28T06:19:03.720Z,69.06
2022-08-28T06:20:03.863Z,71.25
2022-08-28T06:21:04.041Z,72.44
2022-08-28T06:22:07.111Z,71.15
2022-08-28T06:23:04.383Z,72.25
2022-08-28T06:24:04.601Z,72.81
2022-08-28T06:25:07.924Z,72.61
2022-08-28T06:26:04.892Z,71.01
2022-08-28T06:27:05.083Z,70.62
2022-08-28T06:28:05.282Z,70.03
2022-08-28T06:29:05.473Z,70.22
2022-08-28T06:30:05.623Z,71.12
2022-08-28T06:31:24.464Z,70.12
2022-08-28T06:32:07.080Z,69.69
2022-08-28T06:33:06.175Z,70.09
2022-08-28T06:34:06.345Z,69.69
2022-08-28T06:35:06.505Z,69.79
2022-08-28T06:36:06.665Z,69.49
2022-08-28T06:37:06.856Z,69.49
2022-08-28T06:38:07.025Z,68.90
2022-08-28T06:39:07.227Z,69.29
2022-08-28T06:40:07.427Z,69.36
2022-08-28T06:41:07.568Z,69.06
2022-08-28T06:42:07.749Z,68.66
2022-08-28T06:43:07.937Z,68.66
2022-08-28T06:44:08.133Z,68.86
2022-08-28T06:45:08.298Z,69.26
2022-08-28T06:46:08.549Z,67.87
2022-08-28T06:47:08.662Z,67.87
2022-08-28T06:48:08.840Z,67.77
2022-08-28T06:49:09.002Z,67.97
2022-08-28T06:50:09.181Z,67.87
2022-08-28T06:51:09.361Z,67.34
2022-08-28T06:52:09.553Z,67.57
2022-08-28T06:53:09.751Z,67.14
2022-08-28T06:54:09.920Z,67.24
2022-08-28T06:55:10.142Z,67.94
2022-08-28T06:56:10.280Z,67.94
2022-08-28T06:57:10.463Z,66.94
2022-08-28T06:58:10.664Z,67.24
2022-08-28T06:59:10.827Z,66.64
2022-08-28T07:00:11.014Z,67.04
2022-08-28T07:01:11.222Z,66.94
2022-08-28T07:02:11.386Z,67.04
2022-08-28T07:03:11.546Z,66.55
2022-08-28T07:04:11.705Z,65.85
2022-08-28T07:05:11.896Z,65.55
2022-08-28T07:06:12.066Z,65.85
2022-08-28T07:07:18.721Z,65.75
2022-08-28T07:08:13.614Z,65.95
2022-08-28T07:09:12.588Z,65.95
2022-08-28T07:10:12.742Z,65.95
2022-08-28T07:11:12.954Z,66.35
2022-08-28T07:12:13.097Z,65.75
2022-08-28T07:13:13.298Z,65.45
2022-08-28T07:14:13.459Z,65.16
2022-08-28T07:15:13.640Z,65.25
2022-08-28T07:16:13.925Z,65.25
2022-08-28T07:17:14.017Z,65.25
2022-08-28T07:18:14.264Z,65.16
2022-08-28T07:19:14.359Z,65.25
2022-08-28T07:20:14.542Z,65.62
2022-08-28T07:21:14.729Z,65.92
2022-08-28T07:22:14.911Z,65.62
2022-08-28T07:23:15.102Z,65.72
2022-08-28T07:24:15.263Z,66.02
2022-08-28T07:25:15.452Z,65.82
2022-08-28T07:26:15.622Z,65.52
2022-08-28T07:27:18.866Z,65.82
2022-08-28T07:28:15.982Z,65.72
2022-08-28T07:29:16.177Z,65.82
2022-08-28T07:30:16.344Z,65.72
2022-08-28T07:31:16.584Z,65.72
2022-08-28T07:32:16.694Z,65.62
2022-08-28T07:33:16.895Z,65.02
2022-08-28T07:34:17.055Z,64.62
2022-08-28T07:35:17.246Z,64.83
2022-08-28T07:36:29.852Z,65.02
2022-08-28T07:37:18.607Z,64.89
2022-08-28T07:38:17.776Z,64.50
2022-08-28T07:39:17.971Z,64.70
2022-08-28T07:40:18.202Z,64.50
2022-08-28T07:41:18.347Z,64.59
2022-08-28T07:42:18.519Z,64.59
2022-08-28T07:43:18.689Z,65.09
2022-08-28T07:44:18.872Z,65.29
2022-08-28T07:45:19.050Z,65.49
2022-08-28T07:46:19.275Z,64.40
2022-08-28T07:47:19.417Z,64.70
2022-08-28T07:48:21.414Z,64.79
2022-08-28T07:49:19.751Z,65.09
2022-08-28T07:50:19.942Z,65.29
2022-08-28T07:51:20.130Z,64.56
2022-08-28T07:52:20.332Z,65.16
2022-08-28T07:53:20.492Z,64.96
2022-08-28T07:54:20.674Z,65.06
2022-08-28T07:55:20.863Z,64.56
2022-08-28T07:56:21.044Z,64.47
2022-08-28T07:57:21.243Z,64.47
2022-08-28T07:58:21.413Z,65.75
2022-08-28T07:59:21.993Z,65.06
2022-08-28T08:00:21.769Z,64.27
2022-08-28T08:01:22.008Z,63.67
2022-08-28T08:02:22.130Z,63.28
2022-08-28T08:03:22.359Z,62.88
2022-08-28T08:04:22.487Z,62.78
2022-08-28T08:05:22.670Z,62.48
2022-08-28T08:06:22.868Z,62.18
2022-08-28T08:07:24.051Z,62.18
2022-08-28T08:08:23.199Z,62.18
2022-08-28T08:09:23.385Z,61.99
2022-08-28T08:10:23.559Z,61.99
2022-08-28T08:11:23.747Z,61.99
2022-08-28T08:12:23.918Z,61.99
2022-08-28T08:13:24.090Z,61.99
2022-08-28T08:14:24.271Z,62.08
2022-08-28T08:15:26.436Z,62.58
2022-08-28T08:16:25.893Z,63.37
2022-08-28T08:17:24.821Z,64.27
2022-08-28T08:18:25.014Z,64.76
2022-08-28T08:19:25.195Z,65.56
2022-08-28T08:20:25.362Z,65.66
2022-08-28T08:21:29.646Z,64.96
2022-08-28T08:22:25.731Z,64.56
2022-08-28T08:23:25.912Z,64.73
2022-08-28T08:24:26.770Z,64.04
2022-08-28T08:25:26.255Z,64.14
2022-08-28T08:26:26.454Z,63.74
2022-08-28T08:27:26.634Z,63.64
2022-08-28T08:28:26.797Z,63.94
2022-08-28T08:29:26.974Z,63.84
2022-08-28T08:30:27.155Z,63.64
2022-08-28T08:31:27.415Z,63.74
2022-08-28T08:32:27.515Z,63.54
2022-08-28T08:33:27.677Z,63.34
2022-08-28T08:34:27.860Z,63.34
2022-08-28T08:35:28.038Z,63.64
2022-08-28T08:36:28.227Z,63.42
2022-08-28T08:37:28.388Z,63.61
2022-08-28T08:38:28.570Z,63.61
2022-08-28T08:39:28.728Z,63.91
2022-08-28T08:40:28.946Z,66.09
2022-08-28T08:41:29.094Z,65.59
2022-08-28T08:42:29.303Z,64.90
2022-08-28T08:43:29.462Z,65.30
2022-08-28T08:44:33.443Z,65.39
2022-08-28T08:45:29.842Z,65.56
2022-08-28T08:46:30.060Z,65.17
2022-08-28T08:47:30.202Z,65.66
2022-08-28T08:48:30.358Z,64.67
2022-08-28T08:49:30.542Z,65.46
2022-08-28T08:50:30.702Z,65.76
2022-08-28T08:51:30.866Z,65.92
2022-08-28T08:52:31.074Z,66.35
2022-08-28T08:53:31.233Z,65.53
2022-08-28T08:54:31.413Z,65.33
2022-08-28T08:55:31.594Z,65.33
2022-08-28T08:56:34.548Z,65.53
2022-08-28T08:57:31.964Z,64.04
2022-08-28T08:58:32.134Z,63.35
2022-08-28T08:59:32.336Z,63.45
2022-08-28T09:00:32.496Z,62.96
2022-08-28T09:01:32.743Z,62.33
2022-08-28T09:02:32.867Z,62.53
2022-08-28T09:03:33.106Z,62.43
2022-08-28T09:04:33.252Z,62.63
2022-08-28T09:05:33.418Z,62.73
2022-08-28T09:06:33.592Z,62.82
2022-08-28T09:07:33.778Z,62.93
2022-08-28T09:08:33.968Z,63.12
2022-08-28T09:09:34.160Z,63.32
2022-08-28T09:10:34.332Z,62.73
2022-08-28T09:11:36.999Z,61.83
2022-08-28T09:12:34.670Z,61.94
2022-08-28T09:13:34.853Z,61.94
2022-08-28T09:14:35.052Z,61.83
2022-08-28T09:15:35.247Z,62.13
2022-08-28T09:16:35.392Z,61.94
2022-08-28T09:17:35.614Z,61.61
2022-08-28T09:18:35.773Z,61.61
2022-08-28T09:19:35.941Z,61.41
2022-08-28T09:20:36.127Z,61.21
2022-08-28T09:21:36.313Z,60.82
2022-08-28T09:22:36.515Z,60.62
2022-08-28T09:23:36.686Z,60.62
2022-08-28T09:24:36.868Z,60.42
2022-08-28T09:25:37.039Z,60.32
2022-08-28T09:26:37.215Z,60.13
2022-08-28T09:27:39.445Z,60.22
2022-08-28T09:28:37.558Z,60.13
2022-08-28T09:29:37.747Z,60.62
2022-08-28T09:30:37.939Z,60.82
2022-08-28T09:31:38.111Z,60.82
2022-08-28T09:32:38.287Z,60.82
2022-08-28T09:33:38.462Z,61.11
2022-08-28T09:34:39.176Z,61.21
2022-08-28T09:35:38.809Z,61.02
2022-08-28T09:36:38.990Z,60.92
2022-08-28T09:37:39.170Z,60.99
2022-08-28T09:38:39.332Z,60.69
2022-08-28T09:39:39.520Z,60.89
2022-08-28T09:40:39.703Z,60.79
2022-08-28T09:41:39.837Z,60.69
2022-08-28T09:42:40.001Z,60.30
2022-08-28T09:43:40.182Z,60.19
2022-08-28T09:44:40.372Z,60.10
2022-08-28T09:45:40.530Z,59.87
2022-08-28T09:46:40.735Z,59.97
2022-08-28T09:47:46.194Z,60.17
2022-08-28T09:48:42.013Z,59.97
2022-08-28T09:49:41.223Z,60.36
2022-08-28T09:50:41.375Z,59.87
2022-08-28T09:51:41.556Z,59.77
2022-08-28T09:52:41.776Z,59.87
2022-08-28T09:53:41.925Z,59.77
2022-08-28T09:54:42.125Z,59.97
2022-08-28T09:55:42.298Z,60.17
2022-08-28T09:56:42.463Z,59.77
2022-08-28T09:57:42.638Z,59.97
2022-08-28T09:58:42.830Z,59.77
2022-08-28T09:59:43.018Z,59.28
2022-08-28T10:00:43.219Z,59.28
2022-08-28T10:01:45.043Z,59.47
2022-08-28T10:02:43.548Z,59.58
2022-08-28T10:03:43.729Z,59.58
2022-08-28T10:04:44.063Z,59.77
2022-08-28T10:05:44.100Z,59.67
2022-08-28T10:06:44.290Z,59.77
2022-08-28T10:07:44.492Z,59.87
2022-08-28T10:08:44.652Z,59.67
2022-08-28T10:09:47.853Z,59.87
2022-08-28T10:10:45.037Z,59.58
2022-08-28T10:11:45.232Z,59.87
2022-08-28T10:12:45.402Z,60.07
2022-08-28T10:13:45.581Z,59.97
2022-08-28T10:14:45.764Z,59.87
2022-08-28T10:15:45.994Z,59.47
2022-08-28T10:16:46.148Z,59.47
2022-08-28T10:17:46.304Z,59.58
2022-08-28T10:18:46.472Z,59.38
2022-08-28T10:19:46.666Z,59.67
2022-08-28T10:20:46.845Z,59.38
2022-08-28T10:21:47.026Z,59.38
2022-08-28T10:22:47.190Z,59.58
2022-08-28T10:23:47.376Z,59.38
2022-08-28T10:24:47.566Z,59.70
2022-08-28T10:25:47.722Z,59.67
2022-08-28T10:26:47.929Z,59.87
2022-08-28T10:27:48.088Z,60.17
2022-08-28T10:28:48.281Z,60.10
2022-08-28T10:29:48.460Z,60.17
2022-08-28T10:30:48.690Z,60.07
2022-08-28T10:31:48.849Z,60.10
2022-08-28T10:32:49.015Z,60.56
2022-08-28T10:33:49.200Z,60.89
2022-08-28T10:34:49.376Z,60.96
2022-08-28T10:35:49.562Z,60.96
2022-08-28T10:36:49.762Z,60.76
2022-08-28T10:37:49.921Z,60.96
2022-08-28T10:38:53.205Z,60.96
2022-08-28T10:39:50.283Z,60.86
2022-08-28T10:40:50.473Z,60.36
2022-08-28T10:41:50.642Z,60.17
2022-08-28T10:42:50.805Z,60.36
2022-08-28T10:43:50.984Z,60.27
2022-08-28T10:44:51.214Z,60.07
2022-08-28T10:45:51.412Z,60.07
2022-08-28T10:46:51.535Z,60.07
2022-08-28T10:47:51.725Z,60.17
2022-08-28T10:48:51.906Z,60.49
2022-08-28T10:49:52.105Z,60.17
2022-08-28T10:50:52.280Z,60.30
2022-08-28T10:51:52.454Z,60.30
2022-08-28T10:52:52.638Z,59.90
2022-08-28T10:53:52.838Z,59.80
2022-08-28T10:54:53.015Z,59.80
2022-08-28T10:55:53.197Z,59.70
2022-08-28T10:56:56.637Z,59.70
2022-08-28T10:57:53.577Z,59.70
2022-08-28T10:58:53.739Z,59.70
2022-08-28T10:59:53.929Z,59.70
2022-08-28T11:00:54.198Z,59.60
2022-08-28T11:01:54.368Z,59.60
2022-08-28T11:02:54.497Z,59.60
2022-08-28T11:03:54.649Z,59.60
2022-08-28T11:04:58.381Z,59.60
2022-08-28T11:05:54.982Z,59.60
2022-08-28T11:06:55.172Z,59.50
2022-08-28T11:07:55.352Z,59.60
2022-08-28T11:08:55.558Z,59.60
2022-08-28T11:09:55.721Z,59.60
2022-08-28T11:10:55.913Z,59.60
2022-08-28T11:12:01.048Z,59.60
2022-08-28T11:12:57.244Z,59.60
2022-08-28T11:13:56.427Z,59.60
2022-08-28T11:14:56.586Z,59.70
2022-08-28T11:15:56.770Z,59.70
2022-08-28T11:16:56.993Z,59.70
2022-08-28T11:17:57.107Z,59.73
2022-08-28T11:18:57.311Z,59.73
2022-08-28T11:19:57.472Z,59.73
2022-08-28T11:20:57.657Z,59.83
2022-08-28T11:21:57.817Z,59.73
2022-08-28T11:22:58.003Z,59.73
2022-08-28T11:23:58.188Z,59.73
2022-08-28T11:25:03.277Z,59.83
2022-08-28T11:25:59.520Z,59.83
2022-08-28T11:26:58.722Z,59.83
2022-08-28T11:27:58.901Z,59.83
2022-08-28T11:28:59.100Z,59.93
2022-08-28T11:29:59.269Z,59.93
2022-08-28T11:30:59.499Z,59.83
2022-08-28T11:31:59.632Z,59.93
2022-08-28T11:32:59.822Z,59.93
2022-08-28T11:33:59.984Z,59.93
2022-08-28T11:35:00.143Z,59.93
2022-08-28T11:36:00.326Z,59.93
2022-08-28T11:37:00.513Z,59.93
2022-08-28T11:38:00.713Z,59.93
2022-08-28T11:39:00.899Z,59.93
2022-08-28T11:40:01.073Z,60.03
2022-08-28T11:41:01.221Z,59.93
2022-08-28T11:42:01.395Z,60.03
2022-08-28T11:43:01.588Z,60.03
2022-08-28T11:44:01.757Z,60.00
2022-08-28T11:45:01.961Z,59.93
2022-08-28T11:46:02.116Z,59.90
2022-08-28T11:47:02.303Z,60.00
2022-08-28T11:48:02.488Z,60.00
2022-08-28T11:49:02.697Z,59.90
2022-08-28T11:50:02.828Z,59.80
2022-08-28T11:51:03.096Z,59.90
2022-08-28T11:52:03.210Z,59.90
2022-08-28T11:53:03.353Z,59.90
2022-08-28T11:54:03.578Z,60.00
2022-08-28T11:55:03.811Z,59.80
2022-08-28T11:56:03.971Z,59.80
2022-08-28T11:57:04.070Z,59.77
2022-08-28T11:58:40.336Z,59.97
2022-08-28T11:59:40.511Z,59.97
2022-08-28T12:00:40.646Z,59.97
2022-08-28T12:01:40.858Z,59.97
2022-08-28T12:02:41.044Z,59.97
2022-08-28T12:03:41.173Z,59.87
2022-08-28T12:04:41.396Z,59.77
2022-08-28T12:05:41.528Z,59.87
2022-08-28T12:06:42.672Z,59.77
2022-08-28T12:07:41.900Z,59.87
2022-08-28T12:08:42.010Z,59.77
2022-08-28T12:09:42.193Z,59.77
2022-08-28T12:10:42.501Z,59.77
2022-08-28T12:11:42.621Z,59.67
2022-08-28T12:12:42.924Z,59.77
2022-08-28T12:13:49.927Z,59.84
2022-08-28T12:14:43.090Z,59.84
2022-08-28T12:15:43.360Z,59.64
2022-08-28T12:16:43.438Z,59.45
2022-08-28T12:17:43.619Z,59.34
2022-08-28T12:18:43.780Z,59.25
2022-08-28T12:19:55.877Z,59.15
2022-08-28T12:20:45.150Z,59.15
2022-08-28T12:21:44.331Z,59.05
2022-08-28T12:22:44.490Z,59.12
2022-08-28T12:23:44.661Z,59.22
2022-08-28T12:24:44.840Z,59.12
2022-08-28T12:25:46.247Z,58.83
2022-08-28T12:26:45.188Z,58.83
2022-08-28T12:27:45.382Z,58.63
2022-08-28T12:28:45.543Z,58.73
2022-08-28T12:29:45.693Z,58.50
2022-08-28T12:30:45.946Z,58.40
2022-08-28T12:31:46.064Z,58.30
2022-08-28T12:32:46.214Z,58.40
2022-08-28T12:33:46.395Z,58.40
2022-08-28T12:34:46.577Z,58.40
2022-08-28T12:35:46.780Z,58.18
2022-08-28T12:36:51.463Z,58.08
2022-08-28T12:37:52.357Z,57.98
2022-08-28T12:38:48.272Z,57.86
2022-08-28T12:39:47.477Z,57.86
2022-08-28T12:40:47.649Z,57.75
2022-08-28T12:41:47.826Z,57.82
2022-08-28T12:42:50.947Z,57.73
2022-08-28T12:43:49.182Z,57.63
2022-08-28T12:44:48.363Z,57.53
2022-08-28T12:45:48.590Z,57.63
2022-08-28T12:46:48.688Z,57.73
2022-08-28T12:47:48.872Z,57.50
2022-08-28T12:48:49.051Z,57.50
2022-08-28T12:49:49.210Z,57.40
2022-08-28T12:50:49.372Z,57.21
2022-08-28T12:51:49.521Z,57.31
2022-08-28T12:52:49.833Z,57.37
2022-08-28T12:53:49.905Z,57.28
2022-08-28T12:54:50.074Z,57.08
2022-08-28T12:55:50.241Z,56.98